createdAt,value
2023-05-04T00:02:21.116Z,11.95
2023-05-04T00:04:48.219Z,11.96
2023-05-04T00:07:15.141Z,11.90
2023-05-04T00:09:41.975Z,11.96
2023-05-04T00:12:09.358Z,11.96
2023-05-04T00:14:37.598Z,11.95
2023-05-04T00:17:06.773Z,12.01
2023-05-04T00:19:34.785Z,12.17
2023-05-04T00:22:02.107Z,12.06
2023-05-04T00:24:29.463Z,12.03
2023-05-04T00:26:56.334Z,11.99
2023-05-04T00:29:23.322Z,11.97
2023-05-04T00:31:50.868Z,11.94
2023-05-04T00:34:18.507Z,11.92
2023-05-04T00:36:46.480Z,11.98
2023-05-04T00:39:13.916Z,11.91
2023-05-04T00:41:41.160Z,11.92
2023-05-04T00:44:08.011Z,11.92
2023-05-04T00:46:37.961Z,12.06
2023-05-04T00:49:07.752Z,12.00
2023-05-04T00:51:36.054Z,12.04
2023-05-04T00:54:03.220Z,12.06
2023-05-04T00:56:31.077Z,12.01
2023-05-04T00:58:58.594Z,11.91
2023-05-04T01:01:26.224Z,11.96
2023-05-04T01:03:55.322Z,11.65
2023-05-04T01:06:44.209Z,11.61
2023-05-04T01:09:18.122Z,11.55
2023-05-04T01:11:58.842Z,11.61
2023-05-04T01:14:27.233Z,11.62
2023-05-04T01:16:58.002Z,11.62
2023-05-04T01:19:27.635Z,11.57
2023-05-04T01:21:54.746Z,11.63
2023-05-04T01:24:22.252Z,11.58
2023-05-04T01:26:55.775Z,11.67
2023-05-04T01:29:28.564Z,11.75
2023-05-04T01:31:57.191Z,11.70
2023-05-04T01:34:24.077Z,11.70
2023-05-04T01:36:52.006Z,11.63
2023-05-04T01:39:18.840Z,11.64
2023-05-04T01:41:45.621Z,11.79
2023-05-04T01:44:12.646Z,11.81
2023-05-04T01:46:39.789Z,11.67
2023-05-04T01:49:08.052Z,11.79
2023-05-04T01:51:35.055Z,11.75
2023-05-04T01:54:02.067Z,11.79
2023-05-04T01:56:29.144Z,11.83
2023-05-04T01:58:56.132Z,11.88
2023-05-04T02:01:23.161Z,11.87
2023-05-04T02:03:50.117Z,11.87
2023-05-04T02:06:17.215Z,11.82
2023-05-04T02:08:44.104Z,11.78
2023-05-04T02:11:11.322Z,11.83
2023-05-04T02:13:38.646Z,11.80
2023-05-04T02:16:06.761Z,11.79
2023-05-04T02:18:33.717Z,11.77
2023-05-04T02:21:00.957Z,11.75
2023-05-04T02:23:27.743Z,11.74
2023-05-04T02:25:55.972Z,11.73
2023-05-04T02:28:23.858Z,11.73
2023-05-04T02:30:50.973Z,11.78
2023-05-04T02:33:17.824Z,11.78
2023-05-04T02:35:44.604Z,11.78
2023-05-04T02:38:11.384Z,11.70
2023-05-04T02:40:39.864Z,11.68
2023-05-04T02:43:06.726Z,11.74
2023-05-04T02:45:35.249Z,11.60
2023-05-04T02:48:02.588Z,11.59
2023-05-04T02:50:31.188Z,11.73
2023-05-04T02:52:58.902Z,11.73
2023-05-04T02:55:25.854Z,11.69
2023-05-04T02:57:52.777Z,11.45
2023-05-04T03:00:19.748Z,11.56
2023-05-04T03:02:47.100Z,11.63
2023-05-04T03:05:14.188Z,11.60
2023-05-04T03:07:40.981Z,11.57
2023-05-04T03:10:09.337Z,11.70
2023-05-04T03:12:36.339Z,11.58
2023-05-04T03:15:03.594Z,11.61
2023-05-04T03:17:31.366Z,11.58
2023-05-04T03:19:58.463Z,11.57
2023-05-04T03:22:26.854Z,11.60
2023-05-04T03:24:54.563Z,11.64
2023-05-04T03:27:21.537Z,11.64
2023-05-04T03:29:48.516Z,11.66
2023-05-04T03:32:16.076Z,11.63
2023-05-04T03:34:45.679Z,11.65
2023-05-04T03:37:13.430Z,11.63
2023-05-04T03:39:40.581Z,11.54
2023-05-04T03:42:08.366Z,11.57
2023-05-04T03:44:35.183Z,11.58
2023-05-04T03:47:02.152Z,11.53
2023-05-04T03:49:29.953Z,11.59
2023-05-04T03:51:57.118Z,11.51
2023-05-04T03:54:24.616Z,11.42
2023-05-04T03:56:51.683Z,11.71
2023-05-04T03:59:18.524Z,11.69
2023-05-04T04:01:46.251Z,11.76
2023-05-04T04:04:13.199Z,11.78
2023-05-04T04:06:41.933Z,11.78
2023-05-04T04:09:10.274Z,11.81
2023-05-04T04:11:37.175Z,11.95
2023-05-04T04:14:04.261Z,12.01
2023-05-04T04:16:31.446Z,11.91
2023-05-04T04:18:58.565Z,12.03
2023-05-04T04:21:25.370Z,12.00
2023-05-04T04:23:52.496Z,12.05
2023-05-04T04:26:20.413Z,12.02
2023-05-04T04:28:50.725Z,12.05
2023-05-04T04:31:18.945Z,12.09
2023-05-04T04:33:47.520Z,12.02
2023-05-04T04:36:16.822Z,12.09
2023-05-04T04:38:44.566Z,12.11
2023-05-04T04:41:11.830Z,12.12
2023-05-04T04:43:38.976Z,12.21
2023-05-04T04:46:05.816Z,12.27
2023-05-04T04:48:32.978Z,12.25
2023-05-04T04:51:00.060Z,12.30
2023-05-04T04:53:27.107Z,12.34
2023-05-04T04:55:54.704Z,12.31
2023-05-04T04:58:22.191Z,12.35
2023-05-04T05:00:49.092Z,12.40
2023-05-04T05:03:22.813Z,12.47
2023-05-04T05:05:50.052Z,12.47
2023-05-04T05:08:17.148Z,12.45
2023-05-04T05:10:44.271Z,12.49
2023-05-04T05:13:11.169Z,12.39
2023-05-04T05:15:38.157Z,12.39
2023-05-04T05:18:05.026Z,12.52
2023-05-04T05:20:31.944Z,12.57
2023-05-04T05:22:59.139Z,12.45
2023-05-04T05:25:26.174Z,12.34
2023-05-04T05:27:53.273Z,12.32
2023-05-04T05:30:20.328Z,12.28
2023-05-04T05:32:49.195Z,12.32
2023-05-04T05:35:16.753Z,12.30
2023-05-04T05:37:43.557Z,12.37
2023-05-04T05:40:10.954Z,12.29
2023-05-04T05:42:37.846Z,12.30
2023-05-04T05:45:05.313Z,12.46
2023-05-04T05:47:32.246Z,12.41
2023-05-04T05:49:59.238Z,12.47
2023-05-04T05:52:26.370Z,12.60
2023-05-04T05:54:53.567Z,12.59
2023-05-04T05:57:20.808Z,12.56
2023-05-04T05:59:47.952Z,12.70
2023-05-04T06:02:15.361Z,12.69
2023-05-04T06:04:43.265Z,12.75
2023-05-04T06:07:10.474Z,12.82
2023-05-04T06:09:37.385Z,12.93
2023-05-04T06:12:06.806Z,13.06
2023-05-04T06:14:33.809Z,13.02
2023-05-04T06:17:00.801Z,13.22
2023-05-04T06:19:29.576Z,13.24
2023-05-04T06:21:57.841Z,13.29
2023-05-04T06:24:26.975Z,13.15
2023-05-04T06:26:54.004Z,13.27
2023-05-04T06:29:20.789Z,13.26
2023-05-04T06:31:48.463Z,13.21
2023-05-04T06:34:19.240Z,13.23
2023-05-04T06:36:46.019Z,13.30
2023-05-04T06:39:13.016Z,13.22
2023-05-04T06:41:39.829Z,13.25
2023-05-04T06:44:07.004Z,13.49
2023-05-04T06:46:39.886Z,13.63
2023-05-04T06:49:06.852Z,13.69
2023-05-04T06:51:37.506Z,13.67
2023-05-04T06:54:04.304Z,13.86
2023-05-04T06:56:31.425Z,14.14
2023-05-04T06:58:58.350Z,14.45
2023-05-04T07:01:25.452Z,14.58
2023-05-04T07:03:52.595Z,14.82
2023-05-04T07:06:20.272Z,14.99
2023-05-04T07:08:47.063Z,15.06
2023-05-04T07:11:14.295Z,14.91
2023-05-04T07:13:41.206Z,14.84
2023-05-04T07:16:09.278Z,15.12
2023-05-04T07:18:36.441Z,15.34
2023-05-04T07:21:21.921Z,15.76
2023-05-04T07:23:52.208Z,16.27
2023-05-04T07:26:19.468Z,16.70
2023-05-04T07:28:46.776Z,16.67
2023-05-04T07:31:14.566Z,16.73
2023-05-04T07:33:42.104Z,16.61
2023-05-04T07:36:09.302Z,16.62
2023-05-04T07:38:36.684Z,16.53
2023-05-04T07:41:03.827Z,16.70
2023-05-04T07:43:30.737Z,16.71
2023-05-04T07:45:57.941Z,16.66
2023-05-04T07:48:26.448Z,16.61
2023-05-04T07:50:54.292Z,16.71
2023-05-04T07:53:21.715Z,16.92
2023-05-04T07:55:48.895Z,16.86
2023-05-04T07:58:16.748Z,16.63
2023-05-04T08:00:44.073Z,16.61
2023-05-04T08:03:11.676Z,16.92
2023-05-04T08:05:38.740Z,17.05
2023-05-04T08:08:05.784Z,17.12
2023-05-04T08:10:36.972Z,17.50
2023-05-04T08:13:05.605Z,17.52
2023-05-04T08:15:32.714Z,17.22
2023-05-04T08:17:59.820Z,17.18
2023-05-04T08:20:26.902Z,17.40
2023-05-04T08:22:53.869Z,17.46
2023-05-04T08:25:22.276Z,17.73
2023-05-04T08:27:49.581Z,17.82
2023-05-04T08:30:17.416Z,17.98
2023-05-04T08:32:44.435Z,18.20
2023-05-04T08:35:11.489Z,18.14
2023-05-04T08:37:38.297Z,18.09
2023-05-04T08:40:06.026Z,18.33
2023-05-04T08:42:33.415Z,18.66
2023-05-04T08:45:01.401Z,18.80
2023-05-04T08:47:29.804Z,18.92
2023-05-04T08:49:56.856Z,18.89
2023-05-04T08:52:25.605Z,19.05
2023-05-04T08:54:57.055Z,19.11
2023-05-04T08:57:25.233Z,19.30
2023-05-04T08:59:53.943Z,19.57
2023-05-04T09:02:23.829Z,19.70
2023-05-04T09:04:52.831Z,19.79
2023-05-04T09:07:21.395Z,19.89
2023-05-04T09:09:50.921Z,19.93
2023-05-04T09:12:19.423Z,19.98
2023-05-04T09:14:46.894Z,19.98
2023-05-04T09:17:17.799Z,19.92
2023-05-04T09:19:44.959Z,19.91
2023-05-04T09:22:17.547Z,20.05
2023-05-04T09:24:46.400Z,20.32
2023-05-04T09:27:18.760Z,20.46
2023-05-04T09:29:54.017Z,20.65
2023-05-04T09:32:21.058Z,20.45
2023-05-04T09:34:53.171Z,20.13
2023-05-04T09:37:21.521Z,20.03
2023-05-04T09:39:56.404Z,20.10
2023-05-04T09:42:24.768Z,19.80
2023-05-04T09:45:00.022Z,19.80
2023-05-04T09:47:33.793Z,20.12
2023-05-04T09:50:25.541Z,20.09
2023-05-04T09:52:53.700Z,20.51
2023-05-04T09:55:20.876Z,20.70
2023-05-04T09:57:49.695Z,20.84
2023-05-04T10:00:17.916Z,20.94
2023-05-04T10:02:46.496Z,20.70
2023-05-04T10:05:18.833Z,20.35
2023-05-04T10:07:46.852Z,20.31
2023-05-04T10:10:15.209Z,20.40
2023-05-04T10:12:45.193Z,20.38
2023-05-04T10:15:13.087Z,20.21
2023-05-04T10:17:51.865Z,20.16
2023-05-04T10:20:33.834Z,20.06
2023-05-04T10:23:16.303Z,20.12
2023-05-04T10:26:17.851Z,20.04
2023-05-04T10:28:57.970Z,20.06
2023-05-04T10:31:25.748Z,20.02
2023-05-04T10:33:54.089Z,20.17
2023-05-04T10:36:21.477Z,20.25
2023-05-04T10:38:48.492Z,20.32
2023-05-04T10:41:19.658Z,20.35
2023-05-04T10:43:53.402Z,20.22
2023-05-04T10:46:21.584Z,20.37
2023-05-04T10:48:48.872Z,20.70
2023-05-04T10:51:35.647Z,20.92
2023-05-04T10:54:06.008Z,20.90
2023-05-04T10:56:32.812Z,20.87
2023-05-04T10:59:09.253Z,21.11
2023-05-04T11:01:44.792Z,21.26
2023-05-04T11:04:20.855Z,21.46
2023-05-04T11:07:08.857Z,21.62
2023-05-04T11:09:42.103Z,21.54
2023-05-04T11:12:12.425Z,21.60
2023-05-04T11:14:43.461Z,21.44
2023-05-04T11:17:27.537Z,21.19
2023-05-04T11:19:55.903Z,20.95
2023-05-04T11:22:23.097Z,20.85
2023-05-04T11:24:50.043Z,20.86
2023-05-04T11:27:28.803Z,20.92
2023-05-04T11:30:03.113Z,21.06
2023-05-04T11:32:42.891Z,21.20
2023-05-04T11:35:22.911Z,21.21
2023-05-04T11:37:50.725Z,21.21
2023-05-04T11:40:26.028Z,21.31
2023-05-04T11:42:56.924Z,21.31
2023-05-04T11:45:30.161Z,21.30
2023-05-04T11:47:58.772Z,21.67
2023-05-04T11:50:27.228Z,21.75
2023-05-04T11:53:09.456Z,21.68
2023-05-04T11:55:39.910Z,21.68
2023-05-04T11:58:11.937Z,21.44
2023-05-04T12:00:44.271Z,21.40
2023-05-04T12:03:25.950Z,21.25
2023-05-04T12:05:58.130Z,21.23
2023-05-04T12:08:36.416Z,21.33
2023-05-04T12:11:25.937Z,21.33
2023-05-04T12:14:07.335Z,21.33
2023-05-04T12:16:34.612Z,21.30
2023-05-04T12:19:11.414Z,21.43
2023-05-04T12:21:51.183Z,21.59
2023-05-04T12:24:18.201Z,21.84
2023-05-04T12:26:45.143Z,21.96
2023-05-04T12:29:12.188Z,22.09
2023-05-04T12:31:39.089Z,22.10
2023-05-04T12:34:06.179Z,21.95
2023-05-04T12:36:34.351Z,22.07
2023-05-04T12:39:01.847Z,21.90
2023-05-04T12:41:28.713Z,21.93
2023-05-04T12:43:55.982Z,21.81
2023-05-04T12:46:23.100Z,21.83
2023-05-04T12:48:50.207Z,22.14
2023-05-04T12:51:17.065Z,22.28
2023-05-04T12:53:44.334Z,22.20
2023-05-04T12:56:11.128Z,22.12
2023-05-04T12:58:38.089Z,22.17
2023-05-04T13:01:05.223Z,22.14
2023-05-04T13:03:33.104Z,22.25
2023-05-04T13:06:00.157Z,22.29
2023-05-04T13:08:27.074Z,22.48
2023-05-04T13:10:53.996Z,22.79
2023-05-04T13:13:24.625Z,22.54
2023-05-04T13:15:51.864Z,22.25
2023-05-04T13:18:19.000Z,21.82
2023-05-04T13:20:46.270Z,21.82
2023-05-04T13:23:14.146Z,21.89
2023-05-04T13:25:41.130Z,21.97
2023-05-04T13:28:07.938Z,21.79
2023-05-04T13:30:35.065Z,21.84
2023-05-04T13:33:07.694Z,22.11
2023-05-04T13:35:43.424Z,22.09
2023-05-04T13:38:10.920Z,22.06
2023-05-04T13:40:38.075Z,21.91
2023-05-04T13:43:04.892Z,21.91
2023-05-04T13:45:32.436Z,21.82
2023-05-04T13:48:00.184Z,21.83
2023-05-04T13:50:27.298Z,21.37
2023-05-04T13:52:54.228Z,21.30
2023-05-04T13:55:21.384Z,21.27
2023-05-04T13:57:48.726Z,20.99
2023-05-04T14:00:17.868Z,20.88
2023-05-04T14:02:45.535Z,20.63
2023-05-04T14:05:12.960Z,20.43
2023-05-04T14:07:43.116Z,20.40
2023-05-04T14:10:10.417Z,20.38
2023-05-04T14:12:37.324Z,20.19
2023-05-04T14:15:04.834Z,20.09
2023-05-04T14:17:31.971Z,20.02
2023-05-04T14:19:59.063Z,19.95
2023-05-04T14:22:26.154Z,19.77
2023-05-04T14:24:53.167Z,19.57
2023-05-04T14:27:21.120Z,19.53
2023-05-04T14:29:48.097Z,19.51
2023-05-04T14:32:15.312Z,19.42
2023-05-04T14:34:42.211Z,19.31
2023-05-04T14:37:09.208Z,19.41
2023-05-04T14:39:36.691Z,19.42
2023-05-04T14:42:03.994Z,19.40
2023-05-04T14:44:30.996Z,19.37
2023-05-04T14:46:58.013Z,19.40
2023-05-04T14:49:36.010Z,19.32
2023-05-04T14:52:04.589Z,19.20
2023-05-04T14:54:31.498Z,19.25
2023-05-04T14:56:59.080Z,19.10
2023-05-04T14:59:26.275Z,19.05
2023-05-04T15:01:55.043Z,18.97
2023-05-04T15:04:22.671Z,18.83
2023-05-04T15:06:49.784Z,18.50
2023-05-04T15:09:16.818Z,18.32
2023-05-04T15:11:43.822Z,18.22
2023-05-04T15:14:11.199Z,17.98
2023-05-04T15:16:38.414Z,17.88
2023-05-04T15:19:05.426Z,17.79
2023-05-04T15:21:32.471Z,17.47
2023-05-04T15:23:59.500Z,17.37
2023-05-04T15:26:26.622Z,17.24
2023-05-04T15:28:54.210Z,17.18
2023-05-04T15:31:21.824Z,16.88
2023-05-04T15:33:49.094Z,16.75
2023-05-04T15:36:16.176Z,16.80
2023-05-04T15:38:43.716Z,16.79
2023-05-04T15:41:11.018Z,16.75
2023-05-04T15:43:37.860Z,16.78
2023-05-04T15:46:04.862Z,16.79
2023-05-04T15:48:31.850Z,16.87
2023-05-04T15:50:58.806Z,16.98
2023-05-04T15:53:25.876Z,17.03
2023-05-04T15:55:53.276Z,17.05
2023-05-04T15:58:20.072Z,16.96
2023-05-04T16:00:47.369Z,17.04
2023-05-04T16:03:14.413Z,16.98
2023-05-04T16:05:41.499Z,16.88
2023-05-04T16:08:08.349Z,16.93
2023-05-04T16:10:35.361Z,16.92
2023-05-04T16:13:04.443Z,16.92
2023-05-04T16:15:31.537Z,16.87
2023-05-04T16:17:58.407Z,16.79
2023-05-04T16:20:27.070Z,16.71
2023-05-04T16:22:53.984Z,16.61
2023-05-04T16:25:21.057Z,16.58
2023-05-04T16:27:48.013Z,16.49
2023-05-04T16:30:15.869Z,16.49
2023-05-04T16:32:42.854Z,16.48
2023-05-04T16:35:09.891Z,16.40
2023-05-04T16:37:39.857Z,16.40
2023-05-04T16:40:15.151Z,16.39
2023-05-04T16:42:43.609Z,16.38
2023-05-04T16:45:12.037Z,16.36
2023-05-04T16:47:45.040Z,16.36
2023-05-04T16:50:13.481Z,16.31
2023-05-04T16:52:41.144Z,16.27
2023-05-04T16:55:11.308Z,16.26
2023-05-04T16:57:38.937Z,16.23
2023-05-04T17:00:07.120Z,16.23
2023-05-04T17:02:35.305Z,16.22
2023-05-04T17:05:04.678Z,16.19
2023-05-04T17:07:31.805Z,16.12
2023-05-04T17:09:58.747Z,16.12
2023-05-04T17:12:25.702Z,16.16
2023-05-04T17:14:52.841Z,16.08
2023-05-04T17:17:19.779Z,16.13
2023-05-04T17:19:47.844Z,16.06
2023-05-04T17:22:15.026Z,16.09
2023-05-04T17:24:44.780Z,16.07
2023-05-04T17:27:13.024Z,16.04
2023-05-04T17:29:41.207Z,16.07
2023-05-04T17:32:08.780Z,16.14
2023-05-04T17:34:36.469Z,16.07
2023-05-04T17:37:03.806Z,16.04
2023-05-04T17:39:31.757Z,15.97
2023-05-04T17:41:59.170Z,15.93
2023-05-04T17:44:50.257Z,15.86
2023-05-04T17:47:17.111Z,15.82
2023-05-04T17:49:44.084Z,15.75
2023-05-04T17:52:13.091Z,15.72
2023-05-04T17:54:41.110Z,15.72
2023-05-04T17:57:08.165Z,15.76
2023-05-04T17:59:35.146Z,15.71
2023-05-04T18:02:03.303Z,15.64
2023-05-04T18:04:32.295Z,15.61
2023-05-04T18:06:59.681Z,15.52
2023-05-04T18:09:27.009Z,15.43
2023-05-04T18:11:54.176Z,15.38
2023-05-04T18:14:21.105Z,15.36
2023-05-04T18:17:04.213Z,15.37
2023-05-04T18:19:34.301Z,15.27
2023-05-04T18:22:01.134Z,15.28
2023-05-04T18:24:28.069Z,15.19
2023-05-04T18:26:55.139Z,15.24
2023-05-04T18:29:22.112Z,15.19
2023-05-04T18:31:49.243Z,15.19
2023-05-04T18:34:16.503Z,15.17
2023-05-04T18:36:43.355Z,15.10
2023-05-04T18:39:10.932Z,15.12
2023-05-04T18:41:37.878Z,15.03
2023-05-04T18:44:15.549Z,14.97
2023-05-04T18:46:42.508Z,14.96
2023-05-04T18:49:09.410Z,14.90
2023-05-04T18:51:36.836Z,14.94
2023-05-04T18:54:04.249Z,14.93
2023-05-04T18:56:31.954Z,14.90
2023-05-04T18:58:58.752Z,14.84
2023-05-04T19:01:28.178Z,14.86
2023-05-04T19:03:55.209Z,14.75
2023-05-04T19:06:22.229Z,14.69
2023-05-04T19:08:49.725Z,14.75
2023-05-04T19:11:18.025Z,14.69
2023-05-04T19:13:46.259Z,14.72
2023-05-04T19:16:13.949Z,14.69
2023-05-04T19:18:41.255Z,14.72
2023-05-04T19:21:08.089Z,14.62
2023-05-04T19:23:35.370Z,14.67
2023-05-04T19:26:03.096Z,14.59
2023-05-04T19:28:33.973Z,14.55
2023-05-04T19:31:02.638Z,14.50
2023-05-04T19:33:40.432Z,14.52
2023-05-04T19:36:14.615Z,14.49
2023-05-04T19:38:41.577Z,14.45
2023-05-04T19:41:09.346Z,14.41
2023-05-04T19:43:38.459Z,14.43
2023-05-04T19:46:05.767Z,14.42
2023-05-04T19:48:33.075Z,14.41
2023-05-04T19:51:00.094Z,14.39
2023-05-04T19:53:27.040Z,14.39
2023-05-04T19:55:54.179Z,14.37
2023-05-04T19:58:22.260Z,14.32
2023-05-04T20:00:49.539Z,14.33
2023-05-04T20:03:17.917Z,14.23
2023-05-04T20:06:11.138Z,14.11
2023-05-04T20:08:50.773Z,14.10
2023-05-04T20:11:17.651Z,14.03
2023-05-04T20:13:44.684Z,13.96
2023-05-04T20:16:12.981Z,13.89
2023-05-04T20:18:39.889Z,13.89
2023-05-04T20:21:12.679Z,13.99
2023-05-04T20:23:39.756Z,13.96
2023-05-04T20:26:06.660Z,13.87
2023-05-04T20:28:33.666Z,13.89
2023-05-04T20:31:01.051Z,13.91
2023-05-04T20:33:28.239Z,13.95
2023-05-04T20:35:55.242Z,13.96
2023-05-04T20:38:22.359Z,13.95
2023-05-04T20:40:50.436Z,14.00
2023-05-04T20:43:19.323Z,14.00
2023-05-04T20:45:46.115Z,14.01
2023-05-04T20:48:12.988Z,13.98
2023-05-04T20:50:40.502Z,13.98
2023-05-04T20:53:07.415Z,14.02
2023-05-04T20:55:34.466Z,14.00
2023-05-04T20:58:01.545Z,13.96
2023-05-04T21:00:29.064Z,13.95
2023-05-04T21:02:56.150Z,13.97
2023-05-04T21:05:23.183Z,13.92
2023-05-04T21:07:52.257Z,13.97
2023-05-04T21:10:20.081Z,13.95
2023-05-04T21:12:47.383Z,14.00
2023-05-04T21:15:14.456Z,14.02
2023-05-04T21:17:41.459Z,13.99
2023-05-04T21:20:09.523Z,14.07
2023-05-04T21:22:38.568Z,14.07
2023-05-04T21:25:06.462Z,14.01
2023-05-04T21:27:33.424Z,14.04
2023-05-04T21:30:00.522Z,14.05
2023-05-04T21:32:30.529Z,14.05
2023-05-04T21:34:57.565Z,13.95
2023-05-04T21:37:24.408Z,13.94
2023-05-04T21:39:57.663Z,13.93
2023-05-04T21:42:24.639Z,13.90
2023-05-04T21:44:56.099Z,13.90
2023-05-04T21:47:23.235Z,13.91
2023-05-04T21:49:54.297Z,13.86
2023-05-04T21:52:21.497Z,13.85
2023-05-04T21:54:48.596Z,13.90
2023-05-04T21:57:15.714Z,13.85
2023-05-04T21:59:43.111Z,13.87
2023-05-04T22:02:10.147Z,13.88
2023-05-04T22:04:37.528Z,13.83
2023-05-04T22:07:04.438Z,13.90
2023-05-04T22:09:31.746Z,13.88
2023-05-04T22:11:58.792Z,13.88
2023-05-04T22:14:26.128Z,13.92
2023-05-04T22:16:53.285Z,13.57
2023-05-04T22:19:20.282Z,13.82
2023-05-04T22:21:47.167Z,13.84
2023-05-04T22:24:14.143Z,13.77
2023-05-04T22:26:41.182Z,13.87
2023-05-04T22:29:07.983Z,13.74
2023-05-04T22:31:34.949Z,13.79
2023-05-04T22:34:01.940Z,13.82
2023-05-04T22:36:28.899Z,13.77
2023-05-04T22:38:55.902Z,13.69
2023-05-04T22:41:22.934Z,13.76
2023-05-04T22:43:49.716Z,13.79
2023-05-04T22:46:19.792Z,13.76
2023-05-04T22:48:46.999Z,13.73
2023-05-04T22:51:14.705Z,13.74
2023-05-04T22:53:41.669Z,13.68
2023-05-04T22:56:09.088Z,13.64
2023-05-04T22:58:35.886Z,13.73
2023-05-04T23:01:02.943Z,13.70
2023-05-04T23:03:30.175Z,13.80
2023-05-04T23:06:01.015Z,13.76
2023-05-04T23:08:27.925Z,13.75
2023-05-04T23:10:54.848Z,13.72
2023-05-04T23:13:22.022Z,13.72
2023-05-04T23:15:48.828Z,13.67
2023-05-04T23:18:16.354Z,13.75
2023-05-04T23:20:44.096Z,13.75
2023-05-04T23:23:11.441Z,13.68
2023-05-04T23:25:41.433Z,13.71
2023-05-04T23:28:08.319Z,13.69
2023-05-04T23:30:35.611Z,13.67
2023-05-04T23:33:03.818Z,13.65
2023-05-04T23:35:31.757Z,13.65
2023-05-04T23:37:58.508Z,13.61
2023-05-04T23:40:25.762Z,13.59
2023-05-04T23:42:52.623Z,13.65
2023-05-04T23:45:19.872Z,13.67
2023-05-04T23:47:46.830Z,13.61
2023-05-04T23:50:13.942Z,13.61
2023-05-04T23:52:40.866Z,13.59
2023-05-04T23:55:08.004Z,13.57
2023-05-04T23:57:35.064Z,13.60
